createdAt,value
2023-01-23T00:01:16.009Z,103203.78
2023-01-23T00:03:43.147Z,103203.88
2023-01-23T00:06:14.071Z,103197.00
2023-01-23T00:08:41.529Z,103184.03
2023-01-23T00:11:09.544Z,103174.41
2023-01-23T00:13:36.608Z,103171.00
2023-01-23T00:16:10.546Z,103161.56
2023-01-23T00:18:37.246Z,103174.69
2023-01-23T00:21:04.937Z,103172.16
2023-01-23T00:23:31.950Z,103160.94
2023-01-23T00:26:08.638Z,103167.84
2023-01-23T00:28:35.437Z,103161.81
2023-01-23T00:31:03.059Z,103160.94
2023-01-23T00:33:29.837Z,103162.69
2023-01-23T00:35:56.696Z,103168.84
2023-01-23T00:38:23.401Z,103160.09
2023-01-23T00:40:50.907Z,103149.81
2023-01-23T00:43:17.592Z,103164.56
2023-01-23T00:45:44.212Z,103165.56
2023-01-23T00:48:10.957Z,103177.81
2023-01-23T00:50:37.572Z,103172.69
2023-01-23T00:53:04.361Z,103184.03
2023-01-23T00:55:30.963Z,103178.84
2023-01-23T00:57:57.666Z,103178.00
2023-01-23T01:00:24.469Z,103171.94
2023-01-23T01:02:51.264Z,103177.22
2023-01-23T01:05:26.950Z,103177.28
2023-01-23T01:07:53.631Z,103181.66
2023-01-23T01:10:20.591Z,103172.16
2023-01-23T01:12:47.541Z,103174.81
2023-01-23T01:15:21.647Z,103168.78
2023-01-23T01:17:48.444Z,103169.66
2023-01-23T01:20:16.049Z,103173.16
2023-01-23T01:22:42.755Z,103174.97
2023-01-23T01:25:09.643Z,103181.97
2023-01-23T01:27:36.508Z,103182.91
2023-01-23T01:30:03.723Z,103184.63
2023-01-23T01:32:30.403Z,103189.84
2023-01-23T01:34:57.047Z,103189.88
2023-01-23T01:37:25.410Z,103188.09
2023-01-23T01:39:52.045Z,103173.28
2023-01-23T01:42:18.735Z,103161.13
2023-01-23T01:44:53.373Z,103166.38
2023-01-23T01:47:20.000Z,103167.22
2023-01-23T01:49:47.055Z,103174.13
2023-01-23T01:52:14.755Z,103171.63
2023-01-23T01:54:47.491Z,103162.13
2023-01-23T01:57:14.157Z,103160.41
2023-01-23T01:59:47.591Z,103162.19
2023-01-23T02:02:20.173Z,103170.09
2023-01-23T02:04:48.926Z,103167.56
2023-01-23T02:07:20.568Z,103171.06
2023-01-23T02:09:47.722Z,103171.09
2023-01-23T02:12:14.357Z,103180.69
2023-01-23T02:14:41.211Z,103177.28
2023-01-23T02:17:08.029Z,103173.91
2023-01-23T02:19:40.345Z,103182.66
2023-01-23T02:22:27.279Z,103186.16
2023-01-23T02:24:59.888Z,103191.44
2023-01-23T02:27:26.680Z,103190.63
2023-01-23T02:29:56.591Z,103194.19
2023-01-23T02:32:24.712Z,103206.31
2023-01-23T02:34:54.595Z,103209.78
2023-01-23T02:37:21.946Z,103212.34
2023-01-23T02:39:48.599Z,103208.88
2023-01-23T02:42:15.461Z,103207.13
2023-01-23T02:44:42.165Z,103217.56
2023-01-23T02:47:11.963Z,103228.78
2023-01-23T02:49:39.392Z,103216.66
2023-01-23T02:52:06.790Z,103220.97
2023-01-23T02:54:33.522Z,103221.06
2023-01-23T02:57:00.247Z,103222.88
2023-01-23T02:59:45.309Z,103222.91
2023-01-23T03:02:12.477Z,103225.53
2023-01-23T03:04:39.257Z,103229.06
2023-01-23T03:07:05.906Z,103231.66
2023-01-23T03:09:33.565Z,103236.88
2023-01-23T03:12:01.038Z,103243.81
2023-01-23T03:14:28.340Z,103238.69
2023-01-23T03:16:55.387Z,103237.75
2023-01-23T03:19:23.818Z,103229.03
2023-01-23T03:21:51.219Z,103229.94
2023-01-23T03:24:18.434Z,103227.38
2023-01-23T03:26:47.540Z,103230.09
2023-01-23T03:29:37.606Z,103234.63
2023-01-23T03:32:04.329Z,103240.00
2023-01-23T03:34:31.910Z,103240.22
2023-01-23T03:36:58.882Z,103242.16
2023-01-23T03:39:54.812Z,103243.06
2023-01-23T03:42:21.558Z,103244.09
2023-01-23T03:44:48.497Z,103246.78
2023-01-23T03:47:15.137Z,103239.06
2023-01-23T03:49:41.902Z,103245.19
2023-01-23T03:52:08.614Z,103244.41
2023-01-23T03:54:35.218Z,103240.22
2023-01-23T03:57:01.826Z,103242.75
2023-01-23T03:59:28.496Z,103246.09
2023-01-23T04:01:55.946Z,103246.00
2023-01-23T04:04:22.757Z,103243.34
2023-01-23T04:06:49.389Z,103239.84
2023-01-23T04:09:16.045Z,103252.69
2023-01-23T04:11:42.893Z,103259.53
2023-01-23T04:14:09.676Z,103254.41
2023-01-23T04:16:36.335Z,103266.50
2023-01-23T04:19:03.124Z,103257.06
2023-01-23T04:21:29.734Z,103258.84
2023-01-23T04:23:56.382Z,103262.25
2023-01-23T04:26:23.198Z,103258.84
2023-01-23T04:28:49.840Z,103254.56
2023-01-23T04:31:16.767Z,103248.53
2023-01-23T04:33:43.564Z,103247.75
2023-01-23T04:36:10.701Z,103244.38
2023-01-23T04:38:37.341Z,103248.72
2023-01-23T04:41:04.398Z,103253.16
2023-01-23T04:43:31.102Z,103249.84
2023-01-23T04:45:57.949Z,103258.66
2023-01-23T04:48:25.072Z,103252.72
2023-01-23T04:50:51.887Z,103253.81
2023-01-23T04:53:18.634Z,103254.63
2023-01-23T04:55:47.167Z,103254.59
2023-01-23T04:58:13.863Z,103257.28
2023-01-23T05:00:40.641Z,103265.16
2023-01-23T05:03:07.287Z,103252.31
2023-01-23T05:05:33.991Z,103250.50
2023-01-23T05:08:00.682Z,103251.34
2023-01-23T05:10:27.375Z,103251.44
2023-01-23T05:12:54.192Z,103254.13
2023-01-23T05:15:21.491Z,103248.16
2023-01-23T05:17:48.906Z,103243.91
2023-01-23T05:20:15.692Z,103250.81
2023-01-23T05:22:52.711Z,103239.59
2023-01-23T05:25:20.736Z,103243.03
2023-01-23T05:27:47.619Z,103248.16
2023-01-23T05:30:14.619Z,103249.94
2023-01-23T05:32:41.272Z,103244.75
2023-01-23T05:35:08.100Z,103236.13
2023-01-23T05:37:34.869Z,103236.13
2023-01-23T05:40:01.501Z,103246.50
2023-01-23T05:42:28.240Z,103243.91
2023-01-23T05:44:54.955Z,103240.44
2023-01-23T05:47:21.656Z,103235.28
2023-01-23T05:49:48.369Z,103239.63
2023-01-23T05:52:15.047Z,103237.84
2023-01-23T05:54:46.739Z,103232.69
2023-01-23T05:57:13.395Z,103248.25
2023-01-23T05:59:40.052Z,103243.06
2023-01-23T06:02:06.762Z,103244.78
2023-01-23T06:04:33.462Z,103238.72
2023-01-23T06:07:00.140Z,103249.13
2023-01-23T06:09:26.765Z,103258.59
2023-01-23T06:11:53.469Z,103250.03
2023-01-23T06:14:20.261Z,103254.38
2023-01-23T06:16:46.869Z,103257.06
2023-01-23T06:19:13.501Z,103259.66
2023-01-23T06:21:40.179Z,103256.31
2023-01-23T06:24:06.906Z,103264.13
2023-01-23T06:26:33.650Z,103268.53
2023-01-23T06:29:00.347Z,103267.66
2023-01-23T06:31:27.156Z,103264.22
2023-01-23T06:33:53.989Z,103270.31
2023-01-23T06:36:20.611Z,103264.25
2023-01-23T06:38:47.252Z,103267.66
2023-01-23T06:41:13.895Z,103275.34
2023-01-23T06:43:40.534Z,103271.88
2023-01-23T06:46:10.336Z,103284.78
2023-01-23T06:48:37.322Z,103284.81
2023-01-23T06:51:04.255Z,103278.75
2023-01-23T06:53:31.381Z,103289.13
2023-01-23T06:56:01.502Z,103290.03
2023-01-23T06:58:29.238Z,103294.44
2023-01-23T07:00:56.000Z,103290.22
2023-01-23T07:03:22.787Z,103290.31
2023-01-23T07:05:49.484Z,103293.84
2023-01-23T07:08:16.649Z,103284.53
2023-01-23T07:10:43.470Z,103283.75
2023-01-23T07:13:11.814Z,103284.72
2023-01-23T07:15:40.882Z,103286.53
2023-01-23T07:18:07.889Z,103290.91
2023-01-23T07:20:34.491Z,103277.97
2023-01-23T07:23:02.519Z,103285.75
2023-01-23T07:25:30.686Z,103288.28
2023-01-23T07:27:57.468Z,103288.28
2023-01-23T07:30:24.185Z,103289.19
2023-01-23T07:32:50.977Z,103289.13
2023-01-23T07:35:17.771Z,103300.34
2023-01-23T07:37:44.502Z,103292.56
2023-01-23T07:40:11.922Z,103292.56
2023-01-23T07:42:39.082Z,103305.41
2023-01-23T07:45:10.383Z,103306.22
2023-01-23T07:47:39.729Z,103304.47
2023-01-23T07:50:07.315Z,103302.66
2023-01-23T07:52:34.192Z,103304.31
2023-01-23T07:58:13.722Z,103303.41
2023-01-23T08:00:42.107Z,103293.06
2023-01-23T08:03:08.916Z,103299.03
2023-01-23T08:05:35.666Z,103300.66
2023-01-23T08:08:12.991Z,103294.59
2023-01-23T08:10:40.900Z,103296.34
2023-01-23T08:13:07.737Z,103292.84
2023-01-23T08:15:34.622Z,103303.16
2023-01-23T08:18:01.257Z,103294.50
2023-01-23T08:20:27.981Z,103291.06
2023-01-23T08:22:54.693Z,103285.00
2023-01-23T08:25:22.126Z,103276.38
2023-01-23T08:27:48.768Z,103280.69
2023-01-23T08:30:15.569Z,103285.78
2023-01-23T08:32:42.240Z,103277.06
2023-01-23T08:35:09.195Z,103284.81
2023-01-23T08:37:37.135Z,103274.44
2023-01-23T08:40:04.365Z,103277.88
2023-01-23T08:42:30.999Z,103280.44
2023-01-23T08:44:57.685Z,103274.38
2023-01-23T08:47:24.421Z,103284.69
2023-01-23T08:49:51.113Z,103283.72
2023-01-23T08:52:17.814Z,103275.88
2023-01-23T08:54:46.867Z,103287.84
2023-01-23T08:57:13.593Z,103286.81
2023-01-23T08:59:40.442Z,103298.81
2023-01-23T09:02:07.206Z,103300.50
2023-01-23T09:04:33.912Z,103297.75
2023-01-23T09:07:00.633Z,103302.03
2023-01-23T09:09:29.188Z,103309.81
2023-01-23T09:11:55.915Z,103315.81
2023-01-23T09:14:22.675Z,103314.06
2023-01-23T09:16:49.347Z,103315.75
2023-01-23T09:19:16.231Z,103324.41
2023-01-23T09:21:43.039Z,103312.28
2023-01-23T09:24:09.860Z,103315.22
2023-01-23T09:26:36.645Z,103317.25
2023-01-23T09:29:03.340Z,103319.47
2023-01-23T09:31:30.311Z,103323.81
2023-01-23T09:33:57.958Z,103329.94
2023-01-23T09:36:41.379Z,103332.63
2023-01-23T09:39:09.900Z,103338.63
2023-01-23T09:41:36.789Z,103353.28
2023-01-23T09:44:07.627Z,103351.47
2023-01-23T09:46:40.821Z,103353.22
2023-01-23T09:49:14.355Z,103354.91
2023-01-23T09:51:56.973Z,103350.50
2023-01-23T09:54:54.365Z,103351.28
2023-01-23T09:57:20.989Z,103352.03
2023-01-23T10:00:04.067Z,103354.53
2023-01-23T10:02:31.003Z,103356.06
2023-01-23T10:05:02.911Z,103358.53
2023-01-23T10:07:42.706Z,103364.44
2023-01-23T10:10:47.768Z,103366.84
2023-01-23T10:13:16.836Z,103370.09
2023-01-23T10:15:57.679Z,103369.94
2023-01-23T10:18:47.518Z,103374.97
2023-01-23T10:21:41.583Z,103378.28
2023-01-23T10:24:14.057Z,103378.13
2023-01-23T10:26:43.200Z,103384.00
2023-01-23T10:29:24.328Z,103390.84
2023-01-23T10:31:56.561Z,103386.38
2023-01-23T10:34:35.087Z,103395.72
2023-01-23T10:37:19.189Z,103394.81
2023-01-23T10:39:59.247Z,103395.66
2023-01-23T10:42:27.149Z,103395.47
2023-01-23T10:45:00.961Z,103393.59
2023-01-23T10:47:33.223Z,103398.59
2023-01-23T10:50:01.097Z,103394.13
2023-01-23T10:52:37.148Z,103387.06
2023-01-23T10:55:06.444Z,103375.66
2023-01-23T10:57:44.055Z,103378.94
2023-01-23T11:00:29.312Z,103369.28
2023-01-23T11:02:56.127Z,103369.25
2023-01-23T11:05:46.792Z,103370.84
2023-01-23T11:08:28.402Z,103373.25
2023-01-23T11:11:12.080Z,103369.47
2023-01-23T11:13:38.704Z,103364.00
2023-01-23T11:16:05.688Z,103364.53
2023-01-23T11:18:34.647Z,103362.56
2023-01-23T11:21:01.771Z,103357.91
2023-01-23T11:23:29.723Z,103346.41
2023-01-23T11:25:56.857Z,103343.59
2023-01-23T11:28:30.830Z,103343.41
2023-01-23T11:31:13.814Z,103338.84
2023-01-23T11:33:52.765Z,103331.69
2023-01-23T11:36:19.472Z,103321.91
2023-01-23T11:38:58.657Z,103323.53
2023-01-23T11:41:29.323Z,103335.47
2023-01-23T11:43:56.119Z,103332.66
2023-01-23T11:46:22.832Z,103321.06
2023-01-23T11:48:49.519Z,103316.53
2023-01-23T11:51:21.678Z,103316.31
2023-01-23T11:54:08.654Z,103321.34
2023-01-23T11:56:47.529Z,103318.38
2023-01-23T11:59:17.413Z,103322.47
2023-01-23T12:01:58.371Z,103323.94
2023-01-23T12:04:57.943Z,103328.78
2023-01-23T12:07:25.317Z,103331.16
2023-01-23T12:09:55.162Z,103337.00
2023-01-23T12:12:21.769Z,103322.88
2023-01-23T12:14:52.063Z,103311.28
2023-01-23T12:17:21.787Z,103321.31
2023-01-23T12:19:57.190Z,103329.69
2023-01-23T12:22:44.290Z,103328.63
2023-01-23T12:25:29.243Z,103331.84
2023-01-23T12:28:02.476Z,103328.19
2023-01-23T12:30:29.367Z,103319.34
2023-01-23T12:33:14.807Z,103332.38
2023-01-23T12:35:44.202Z,103327.69
2023-01-23T12:38:20.028Z,103332.66
2023-01-23T12:40:59.262Z,103330.06
2023-01-23T12:43:38.647Z,103333.53
2023-01-23T12:46:18.071Z,103331.56
2023-01-23T12:49:04.949Z,103331.28
2023-01-23T12:51:36.842Z,103325.91
2023-01-23T12:54:06.980Z,103327.53
2023-01-23T12:56:36.185Z,103327.38
2023-01-23T12:59:11.444Z,103317.59
2023-01-23T13:01:55.202Z,103311.31
2023-01-23T13:04:35.912Z,103303.38
2023-01-23T13:07:11.779Z,103297.97
2023-01-23T13:09:41.640Z,103300.44
2023-01-23T13:12:22.672Z,103304.44
2023-01-23T13:15:15.398Z,103298.94
2023-01-23T13:17:42.204Z,103305.75
2023-01-23T13:20:39.958Z,103315.19
2023-01-23T13:23:25.173Z,103310.00
2023-01-23T13:26:12.132Z,103312.47
2023-01-23T13:28:46.032Z,103300.03
2023-01-23T13:31:32.263Z,103299.06
2023-01-23T13:34:14.660Z,103308.53
2023-01-23T13:36:42.435Z,103311.41
2023-01-23T13:39:15.279Z,103315.03
2023-01-23T13:41:42.792Z,103314.19
2023-01-23T13:44:40.739Z,103308.81
2023-01-23T14:21:52.789Z,103268.16
2023-01-23T14:24:23.683Z,103282.84
2023-01-23T14:26:51.599Z,103282.00
2023-01-23T14:29:20.943Z,103286.25
2023-01-23T14:31:47.963Z,103277.34
2023-01-23T14:34:17.926Z,103290.16
2023-01-23T14:36:59.851Z,103285.78
2023-01-23T14:39:27.700Z,103285.78
2023-01-23T14:41:56.298Z,103289.06
2023-01-23T14:44:50.181Z,103292.44
2023-01-23T14:47:19.713Z,103287.19
2023-01-23T14:49:48.391Z,103293.22
2023-01-23T14:52:26.057Z,103288.06
2023-01-23T14:54:57.771Z,103284.66
2023-01-23T14:57:27.364Z,103290.59
2023-01-23T14:59:58.097Z,103288.84
2023-01-23T15:02:24.772Z,103285.38
2023-01-23T15:05:16.813Z,103287.56
2023-01-23T15:07:46.349Z,103292.03
2023-01-23T15:10:15.085Z,103285.97
2023-01-23T15:12:47.746Z,103296.50
2023-01-23T15:15:17.420Z,103286.94
2023-01-23T15:17:45.476Z,103284.53
2023-01-23T15:20:30.933Z,103279.56
2023-01-23T15:22:58.566Z,103289.47
2023-01-23T15:25:29.254Z,103291.28
2023-01-23T15:27:56.051Z,103291.28
2023-01-23T15:30:31.697Z,103290.38
2023-01-23T15:32:58.926Z,103286.97
2023-01-23T15:35:26.181Z,103294.41
2023-01-23T15:37:56.227Z,103290.16
2023-01-23T15:40:26.906Z,103295.59
2023-01-23T15:43:03.999Z,103295.66
2023-01-23T15:45:30.677Z,103288.94
2023-01-23T15:47:57.329Z,103287.31
2023-01-23T15:50:23.995Z,103298.69
2023-01-23T15:52:52.493Z,103296.94
2023-01-23T15:55:20.839Z,103289.13
2023-01-23T15:57:48.189Z,103291.69
2023-01-23T16:00:19.081Z,103294.09
2023-01-23T16:02:55.641Z,103289.03
2023-01-23T16:05:24.712Z,103290.13
2023-01-23T16:07:52.012Z,103291.09
2023-01-23T16:10:18.799Z,103281.53
2023-01-23T16:12:48.906Z,103286.72
2023-01-23T16:15:16.991Z,103281.34
2023-01-23T16:17:44.007Z,103285.47
2023-01-23T16:20:21.454Z,103282.78
2023-01-23T16:23:15.133Z,103286.47
2023-01-23T16:25:46.169Z,103290.91
2023-01-23T16:28:17.309Z,103291.69
2023-01-23T16:30:44.463Z,103287.88
2023-01-23T16:33:11.204Z,103300.94
2023-01-23T16:35:38.033Z,103300.13
2023-01-23T16:38:05.297Z,103296.00
2023-01-23T16:40:32.897Z,103299.53
2023-01-23T16:43:00.377Z,103299.34
2023-01-23T16:45:27.825Z,103302.00
2023-01-23T16:47:55.104Z,103298.75
2023-01-23T16:50:41.636Z,103299.75
2023-01-23T16:53:19.998Z,103312.03
2023-01-23T16:55:46.915Z,103312.81
2023-01-23T16:58:16.192Z,103313.66
2023-01-23T17:00:43.030Z,103315.28
2023-01-23T17:03:10.396Z,103319.47
2023-01-23T17:05:37.470Z,103324.66
2023-01-23T17:08:23.391Z,103324.66
2023-01-23T17:10:52.066Z,103324.59
2023-01-23T17:13:19.871Z,103332.34
2023-01-23T17:15:47.438Z,103330.59
2023-01-23T17:18:22.212Z,103324.66
2023-01-23T17:20:49.399Z,103327.97
2023-01-23T17:23:16.154Z,103330.47
2023-01-23T17:25:59.820Z,103328.72
2023-01-23T17:28:27.672Z,103342.75
2023-01-23T17:30:55.108Z,103344.50
2023-01-23T17:33:23.341Z,103340.19
2023-01-23T17:35:50.914Z,103340.19
2023-01-23T17:38:31.027Z,103339.22
2023-01-23T17:40:57.693Z,103341.91
2023-01-23T17:43:24.372Z,103339.22
2023-01-23T17:45:51.519Z,103342.75
2023-01-23T17:48:27.606Z,103343.66
2023-01-23T17:50:54.729Z,103346.44
2023-01-23T17:53:21.757Z,103347.34
2023-01-23T17:55:53.225Z,103345.63
2023-01-23T17:58:20.525Z,103353.47
2023-01-23T18:00:51.069Z,103347.34
2023-01-23T18:03:20.751Z,103356.84
2023-01-23T18:05:47.759Z,103354.22
2023-01-23T18:08:15.437Z,103362.97
2023-01-23T18:10:46.295Z,103350.66
2023-01-23T18:13:28.470Z,103360.34
2023-01-23T18:16:30.327Z,103357.69
2023-01-23T18:19:01.575Z,103353.38
2023-01-23T18:21:28.650Z,103363.75
2023-01-23T18:23:55.949Z,103358.50
2023-01-23T18:26:43.035Z,103355.88
2023-01-23T18:29:09.857Z,103367.16
2023-01-23T18:31:51.854Z,103374.09
2023-01-23T18:34:35.653Z,103370.78
2023-01-23T18:37:05.364Z,103366.50
2023-01-23T18:39:32.278Z,103372.44
2023-01-23T18:42:02.383Z,103382.19
2023-01-23T18:44:29.997Z,103382.25
2023-01-23T18:46:57.094Z,103373.53
2023-01-23T18:49:32.283Z,103369.16
2023-01-23T18:52:14.699Z,103395.28
2023-01-23T18:55:05.364Z,103388.41
2023-01-23T18:57:47.548Z,103387.69
2023-01-23T19:00:17.347Z,103390.38
2023-01-23T19:02:47.182Z,103388.59
2023-01-23T19:05:16.907Z,103384.28
2023-01-23T19:07:45.226Z,103380.88
2023-01-23T19:10:15.799Z,103382.59
2023-01-23T19:12:45.570Z,103378.22
2023-01-23T19:15:19.397Z,103372.13
2023-01-23T19:18:06.680Z,103379.91
2023-01-23T19:20:42.259Z,103383.50
2023-01-23T19:23:32.181Z,103373.09
2023-01-23T19:25:59.221Z,103374.78
2023-01-23T19:28:26.276Z,103373.09
2023-01-23T19:30:53.101Z,103375.78
2023-01-23T19:33:20.235Z,103385.59
2023-01-23T19:35:47.570Z,103388.19
2023-01-23T19:38:15.220Z,103384.00
2023-01-23T19:40:42.764Z,103388.50
2023-01-23T19:43:16.960Z,103389.34
2023-01-23T19:45:44.233Z,103387.78
2023-01-23T19:48:11.267Z,103393.03
2023-01-23T19:50:38.609Z,103393.03
2023-01-23T19:53:05.898Z,103391.97
2023-01-23T19:55:34.331Z,103400.63
2023-01-23T19:58:01.229Z,103406.56
2023-01-23T20:00:29.873Z,103402.97
2023-01-23T20:02:56.961Z,103402.00
2023-01-23T20:05:24.029Z,103407.41
2023-01-23T20:07:50.997Z,103411.78
2023-01-23T20:10:17.873Z,103423.28
2023-01-23T20:12:52.385Z,103421.59
2023-01-23T20:15:23.551Z,103414.66
2023-01-23T20:17:51.621Z,103419.22
2023-01-23T20:20:19.174Z,103422.06
2023-01-23T20:22:46.269Z,103423.78
2023-01-23T20:25:14.568Z,103428.94
2023-01-23T20:27:41.584Z,103420.97
2023-01-23T20:30:11.134Z,103421.78
2023-01-23T20:32:38.258Z,103421.59
2023-01-23T20:35:05.401Z,103412.69
2023-01-23T20:37:32.080Z,103411.66
2023-01-23T20:39:59.022Z,103415.97
2023-01-23T20:42:25.719Z,103409.03
2023-01-23T20:44:57.114Z,103403.91
2023-01-23T20:47:23.873Z,103405.56
2023-01-23T20:49:50.709Z,103412.59
2023-01-23T20:52:35.713Z,103407.16
2023-01-23T20:55:02.434Z,103398.28
2023-01-23T20:57:49.605Z,103406.97
2023-01-23T21:03:42.135Z,103407.16
2023-01-23T21:06:09.738Z,103406.13
2023-01-23T21:08:36.802Z,103401.75
2023-01-23T21:11:11.438Z,103401.81
2023-01-23T21:13:38.191Z,103408.03
2023-01-23T21:16:06.507Z,103415.94
2023-01-23T21:18:36.818Z,103419.41
2023-01-23T21:21:08.140Z,103417.75
2023-01-23T21:23:35.366Z,103420.16
2023-01-23T21:26:02.790Z,103421.88
2023-01-23T21:28:30.189Z,103420.31
2023-01-23T21:30:57.040Z,103417.69
2023-01-23T21:33:23.901Z,103418.78
2023-01-23T21:35:51.287Z,103416.34
2023-01-23T21:38:17.941Z,103424.31
2023-01-23T21:40:44.759Z,103419.09
2023-01-23T21:43:11.419Z,103426.09
2023-01-23T21:45:38.230Z,103425.16
2023-01-23T21:48:05.343Z,103417.41
2023-01-23T21:50:32.094Z,103410.13
2023-01-23T21:52:58.788Z,103419.69
2023-01-23T21:55:25.473Z,103420.78
2023-01-23T21:57:52.281Z,103420.75
2023-01-23T22:00:37.505Z,103418.19
2023-01-23T22:03:04.213Z,103412.84
2023-01-23T22:05:33.229Z,103419.69
2023-01-23T22:07:59.868Z,103425.41
2023-01-23T22:10:26.501Z,103419.44
2023-01-23T22:12:53.170Z,103425.34
2023-01-23T22:15:20.566Z,103422.88
2023-01-23T22:17:47.831Z,103428.19
2023-01-23T22:20:32.758Z,103428.19
2023-01-23T22:23:13.210Z,103430.72
2023-01-23T22:25:40.465Z,103429.78
2023-01-23T22:28:27.568Z,103432.34
2023-01-23T22:30:54.764Z,103427.16
2023-01-23T22:33:22.503Z,103424.63
2023-01-23T22:35:50.883Z,103426.44
2023-01-23T22:38:17.898Z,103428.28
2023-01-23T22:40:44.917Z,103421.34
2023-01-23T22:43:12.216Z,103419.97
2023-01-23T22:45:39.390Z,103422.72
2023-01-23T22:48:06.723Z,103423.72
2023-01-23T22:50:33.625Z,103424.63
2023-01-23T22:53:00.669Z,103420.31
2023-01-23T22:55:27.275Z,103422.06
2023-01-23T22:57:53.872Z,103440.38
2023-01-23T23:00:20.868Z,103434.03
2023-01-23T23:02:47.575Z,103427.97
2023-01-23T23:05:14.451Z,103426.16
2023-01-23T23:07:41.205Z,103425.19
2023-01-23T23:10:08.778Z,103430.56
2023-01-23T23:12:35.576Z,103432.38
2023-01-23T23:15:03.241Z,103432.72
2023-01-23T23:17:30.648Z,103431.91
2023-01-23T23:19:57.303Z,103428.44
2023-01-23T23:22:23.956Z,103438.00
2023-01-23T23:24:53.250Z,103432.84
2023-01-23T23:27:19.900Z,103429.25
2023-01-23T23:29:46.609Z,103426.50
2023-01-23T23:32:13.381Z,103425.59
2023-01-23T23:34:46.488Z,103424.69
2023-01-23T23:37:13.192Z,103432.09
2023-01-23T23:39:39.923Z,103424.28
2023-01-23T23:42:06.668Z,103428.69
2023-01-23T23:44:33.518Z,103426.84
2023-01-23T23:47:21.571Z,103418.88
2023-01-23T23:49:48.815Z,103424.09
2023-01-23T23:52:15.455Z,103423.38
2023-01-23T23:54:42.080Z,103422.59
2023-01-23T23:57:08.776Z,103420.91
2023-01-23T23:59:35.543Z,103421.69
